Météo Cheval Rigon

 

Relevés d'aujourd'hui



 

16/6/19
Time         Wind Dir   Wind Spd  Wind Gust   Humidity       Temp   Tot Rain Wind Chill  Dew Point   Barom SL Humidity R Temp Out R Tot Rain R   WindCh R   Dew Pt R SL Barom R Temp Out H Temp Out L  DailyRain   HourRain   24HrRain   RainRate  MonthRain
                          km/hr      km/hr          %         C         mm         C         C         mb       %/hr      C/hr      mm/hr      C/hr      C/hr      mm/hr         C         C         mm         mm         mm      mm/hr         mm
0:00              130          0          3         95       10.3     274.00       10.3        9.6    1021.85       -0.6      -0.58      0.003      -0.58      -0.67      0.457       10.3       10.3       4.40       0.00       4.80      0.000      46.60
0:15              120          0          3         95       10.3     274.00       10.3        9.6    1021.89       -0.5      -0.45      0.003      -0.45      -0.52      0.382       10.3       10.3       0.00       0.00       4.40      0.000      46.60
0:30              121          0          3         95       10.2     274.00       10.2        9.5    1022.02       -0.4      -0.46      0.002      -0.46      -0.51      0.415       10.3       10.2       0.00       0.00       4.40      0.000      46.60
0:45              121          2          3         96       10.2     274.00       10.2        9.6    1022.09        0.6      -0.40      0.002      -0.40      -0.30      0.380       10.3       10.2       0.00       0.00       4.40      0.000      46.60
1:00              130          0          3         95       10.2     274.00       10.2        9.4    1022.16       -0.4      -0.32      0.001      -0.32      -0.38      0.349       10.3       10.2       0.00       0.00       4.40      0.000      46.60
1:15              130          0          2         96       10.2     274.00       10.2        9.6    1022.12        0.7      -0.24      0.001      -0.24      -0.13      0.247       10.3       10.1       0.00       0.00       4.40      0.000      46.60
1:30              130          2          3         95       10.2     274.00       10.2        9.4    1022.09       -0.4      -0.20      0.001      -0.20      -0.25      0.157       10.3       10.1       0.00       0.00       4.40      0.000      46.60
1:45              130          0          3         95       10.2     274.00       10.2        9.5    1022.16       -0.3      -0.10      0.001      -0.10      -0.15      0.178       10.3       10.1       0.00       0.00       4.40      0.000      46.60
2:00              130          0          5         95       10.3     274.00       10.3        9.6    1022.26       -0.2       0.02      0.000       0.02      -0.02      0.232       10.3       10.1       0.00       0.00       4.40      0.000      46.60
2:15              130          0          3         95       10.7     274.00       10.7       10.0    1022.16       -0.2       0.36      0.000       0.36       0.34      0.093       10.7       10.1       0.00       0.00       4.40      0.000      46.60
2:30              130          3          3         95       10.8     274.00       10.8       10.0    1022.22       -0.1       0.33      0.000       0.33       0.31      0.130       10.8       10.1       0.00       0.00       4.40      0.000      46.60
2:45              130          0          3         94       10.8     274.00       10.8        9.9    1022.16       -0.9       0.26      0.000       0.26       0.12      0.045       10.8       10.1       0.00       0.00       4.40      0.000      46.60
3:00              130          0          3         95       10.8     274.00       10.8       10.0    1022.19        0.2       0.22      0.000       0.22       0.26      0.064       10.8       10.1       0.00       0.00       4.40      0.000      46.60
3:15              130          0          0         95       11.0     274.00       11.0       10.2    1022.19        0.2       0.37      0.000       0.37       0.39      0.052       11.0       10.1       0.00       0.00       4.40      0.000      46.60
3:30              130          0          0         95       11.0     274.00       11.0       10.2    1022.29        0.1       0.28      0.000       0.28       0.30      0.138       11.1       10.1       0.00       0.00       4.20      0.000      46.60
3:45              130          0          0         95       10.9     274.00       10.9       10.1    1022.22        0.2       0.11      0.000       0.11       0.15      0.047       11.1       10.1       0.00       0.00       4.20      0.000      46.60
4:00              130          0          2         95       10.7     274.00       10.7       10.0    1022.33        0.2      -0.05      0.000      -0.05      -0.03      0.124       11.1       10.1       0.00       0.00       4.20      0.000      46.60
4:15              130          0          0         94       10.5     274.00       10.5        9.6    1022.36       -0.8      -0.24      0.000      -0.24      -0.36      0.126       11.1       10.1       0.00       0.00       4.20      0.000      46.60
4:30              130          0          0         95       10.2     274.00       10.2        9.4    1022.29        0.2      -0.48      0.000      -0.48      -0.45      0.041       11.1       10.1       0.00       0.00       4.20      0.000      46.60
4:45              130          0          0         95        9.8     274.00        9.8        9.1    1022.33        0.2      -0.67      0.000      -0.67      -0.64      0.052       11.1        9.8       0.00       0.00       4.20      0.000      46.60
5:00              130          0          0         96        9.7     274.00        9.7        9.1    1022.39        0.9      -0.68      0.000      -0.68      -0.53      0.093       11.1        9.7       0.00       0.00       4.20      0.000      46.60
5:15              130          0          0         95        9.1     274.00        9.1        8.3    1022.46       -0.1      -1.07      0.000      -1.07      -1.07      0.124       11.1        9.1       0.00       0.00       4.20      0.000      46.60
5:30              130          0          0         97        9.1     274.00        9.1        8.6    1022.53        1.7      -0.82      0.000      -0.82      -0.55      0.161       11.1        9.0       0.00       0.00       4.20      0.000      46.60
5:45              130          0          0         97        9.1     274.00        9.1        8.6    1022.53        1.5      -0.65      0.000      -0.65      -0.42      0.124       11.1        9.0       0.00       0.00       4.20      0.000      46.60
6:00              130          0          0         97        9.0     274.00        9.0        8.6    1022.66        1.1      -0.55      0.000      -0.55      -0.37      0.226       11.1        9.0       0.00       0.00       4.20      0.000      46.60
6:15              130          0          0         97        8.9     274.00        8.9        8.5    1022.60        0.9      -0.48      0.000      -0.48      -0.34      0.116       11.1        8.9       0.00       0.00       4.20      0.000      46.60
6:30              130          0          2         97        9.1     274.00        9.1        8.6    1022.60        0.7      -0.28      0.000      -0.28      -0.17      0.095       11.1        8.9       0.00       0.00       4.20      0.000      46.60
6:45              130          0          0         97        9.3     274.00        9.3        8.8    1022.73        0.5      -0.02      0.000      -0.02       0.06      0.188       11.1        8.9       0.00       0.00       4.20      0.000      46.60
7:00              130          0          0         97        9.4     274.00        9.4        9.0    1022.83        0.4       0.13      0.000       0.13       0.19      0.239       11.1        8.9       0.00       0.00       4.20      0.000      46.60
7:15              130          0          0         98        9.7     274.00        9.7        9.4    1022.83        1.1       0.30      0.000       0.30       0.48      0.181       11.1        8.9       0.00       0.00       4.20      0.000      46.60
7:30              130          0          0         98       10.0     274.00       10.0        9.7    1022.90        0.9       0.53      0.000       0.53       0.66      0.195       11.1        8.9       0.00       0.00       4.20      0.000      46.60
7:45              130          0          0         98       10.3     274.00       10.3       10.0    1023.00        0.7       0.65      0.000       0.65       0.75      0.246       11.1        8.9       0.00       0.00       4.20      0.000      46.60
8:00              130          0          0         98       10.4     274.00       10.4       10.1    1023.07        0.5       0.65      0.000       0.65       0.73      0.259       11.1        8.9       0.00       0.00       4.20      0.000      46.60
8:15              130          0          0         98       10.7     274.00       10.7       10.4    1023.21        0.4       0.71      0.000       0.71       0.77      0.335       11.1        8.9       0.00       0.00       4.20      0.000      46.60
8:30              130          0          0         98       11.0     274.00       11.0       10.7    1023.24        0.3       0.85      0.000       0.85       0.90      0.303       11.1        8.9       0.00       0.00       4.20      0.000      46.60
8:45              130          0          0         98       11.4     274.00       11.4       11.1    1023.34        0.3       1.00      0.000       1.00       1.04      0.332       11.4        8.9       0.00       0.00       4.20      0.000      46.60
9:00              129          0          3         97       11.6     274.00       11.6       11.1    1023.55       -0.6       0.93      0.000       0.93       0.84      0.431       11.6        8.9       0.00       0.00       4.20      0.000      46.60
9:15              126          0          3         96       12.0     274.00       12.0       11.4    1023.55       -1.3       1.13      0.000       1.13       0.92      0.338       12.0        8.9       0.00       0.00       4.20      0.000      46.60
9:30              125          2          3         94       12.6     274.00       12.6       11.6    1023.48       -2.9       1.37      0.000       1.37       0.91      0.203       12.6        8.9       0.00       0.00       4.20      0.000      46.60
9:45               98          0          5         92       13.0     274.00       13.0       11.7    1023.34       -4.1       1.46      0.000       1.46       0.80      0.040       13.0        8.9       0.00       0.00       4.20      0.000      46.60
10:00               5          2          6         92       13.2     274.00       13.2       12.0    1023.34       -3.0       1.34      0.000       1.34       0.85      0.027       13.2        8.9       0.00       0.00       4.20      0.000      46.60
10:15               5          0          3         90       13.7     274.00       13.7       12.1    1023.41       -4.0       1.41      0.000       1.41       0.75      0.083       13.7        8.9       0.00       0.00       4.20      0.000      46.60
10:30               5          0          3         88       14.0     274.00       14.0       12.0    1023.21       -4.9       1.42      0.000       1.42       0.59     -0.115       14.0        8.9       0.00       0.00       4.20      0.000      46.60
10:45               5          0          3         86       14.3     274.00       14.3       12.0    1023.17       -5.7       1.32      0.000       1.32       0.34     -0.118       14.4        8.9       0.00       0.00       4.20      0.000      46.60
11:00               5          0          3         85       14.8     274.00       14.8       12.3    1023.14       -5.5       1.49      0.000       1.49       0.54     -0.126       14.8        8.9       0.00       0.00       4.20      0.000      46.60
11:15               5          0          3         80       15.6     274.00       15.6       12.1    1023.14       -8.8       1.84      0.000       1.84       0.25     -0.096       15.6        8.9       0.00       0.00       4.20      0.000      46.60
11:30               5          0          2         78       16.8     274.00       16.8       13.0    1023.10       -8.6       2.58      0.000       2.58       0.97     -0.101       16.8        8.9       0.00       0.00       4.20      0.000      46.60
11:45               5          0          3         75       17.0     274.00       17.0       12.5    1023.10       -9.4       2.14      0.000       2.14       0.35     -0.080       17.1        8.9       0.00       0.00       4.20      0.000      46.60
12:00             360          5          5         78       17.4     274.00       17.4       13.6    1023.04       -4.8       2.06      0.000       2.06       1.16     -0.125       17.5        8.9       0.00       0.00       4.20      0.000      46.60
12:15             348          0          6         73       17.3     274.00       17.3       12.5    1022.87       -8.0       1.50      0.000       1.50      -0.07     -0.241       17.5        8.9       0.00       0.00       4.20      0.000      46.60
12:30             360          0          6         73       17.7     274.00       17.7       12.8    1022.73       -6.4       1.51      0.000       1.51       0.25     -0.311       17.7        8.9       0.00       0.00       4.00      0.000      46.60
12:45             360          2          5         73       18.1     274.00       18.1       13.2    1022.60       -4.9       1.53      0.000       1.53       0.54     -0.371       18.1        8.9       0.00       0.00       4.00      0.000      46.60
13:00             348          0          5         74       18.6     274.00       18.6       13.8    1022.53       -3.2       1.58      0.000       1.58       0.92     -0.346       18.6        8.9       0.00       0.00       3.60      0.000      46.60
13:15             350          0          5         73       18.8     274.00       18.8       13.8    1022.43       -3.5       1.43      0.000       1.43       0.72     -0.364       18.8        8.9       0.00       0.00       3.20      0.000      46.60
13:30             350          0          5         73       19.4     274.00       19.4       14.5    1022.46       -3.0       1.70      0.000       1.70       1.06     -0.258       19.4        8.9       0.00       0.00       2.60      0.000      46.60
13:45             360          0          6         71       19.4     274.00       19.4       14.0    1022.26       -3.9       1.28      0.000       1.28       0.45     -0.365       19.4        8.9       0.00       0.00       2.40      0.000      46.60
14:00             360          3          6         72       19.4     274.00       19.4       14.3    1022.09       -2.5       1.05      0.000       1.05       0.52     -0.432       19.6        8.9       0.00       0.00       2.00      0.000      46.60
14:15             342          2          6         71       19.8     274.00       19.8       14.4    1021.99       -3.3       1.14      0.000       1.14       0.41     -0.432       19.8        8.9       0.00       0.00       2.00      0.000      46.60
14:30             337          0          8         70       20.1     274.00       20.1       14.5    1021.95       -4.0       1.17      0.000       1.17       0.28     -0.373       20.1        8.9       0.00       0.00       2.00      0.000      46.60
14:45             337          0          5         71       20.6     274.00       20.6       15.2    1021.89       -2.7       1.35      0.000       1.35       0.73     -0.347       20.6        8.9       0.00       0.00       2.00      0.000      46.60
15:00             355          5          6         68       20.6     274.00       20.6       14.5    1021.82       -5.1       1.02      0.000       1.02      -0.13     -0.334       20.9        8.9       0.00       0.00       2.00      0.000      46.60
15:15             348          2          6         71       20.8     274.00       20.8       15.3    1021.61       -2.0       0.96      0.000       0.96       0.50     -0.446       20.9        8.9       0.00       0.00       2.00      0.000      46.60
15:30             349          3          6         72       21.1     274.00       21.1       15.8    1021.58       -0.8       0.98      0.000       0.98       0.78     -0.382       21.1        8.9       0.00       0.00       2.00      0.000      46.60
15:45             360          2          6         70       21.4     274.00       21.4       15.8    1021.45       -2.5       1.12      0.000       1.12       0.54     -0.421       21.4        8.9       0.00       0.00       2.00      0.000      46.60
16:00             355          3          8         70       21.4     274.00       21.4       15.8    1021.38       -1.7       0.87      0.000       0.87       0.47     -0.392       21.5        8.9       0.00       0.00       2.00      0.000      46.60
16:15             355          2          8         70       21.6     274.00       21.6       15.9    1021.28       -1.0       0.78      0.000       0.78       0.53     -0.392       21.6        8.9       0.00       0.00       2.00      0.000      46.60
16:30               5          3          8         69       21.8     274.00       21.8       15.8    1021.07       -1.4       0.80      0.000       0.80       0.47     -0.482       21.8        8.9       0.00       0.00       2.00      0.000      46.60
16:45               5          2          8         65       22.1     274.00       22.1       15.2    1020.97       -5.0       0.87      0.000       0.87      -0.30     -0.462       22.1        8.9       0.00       0.00       2.00      0.000      46.60
17:00             360          5          8         67       22.2     274.00       22.2       15.8    1020.73       -2.2       0.78      0.000       0.78       0.25     -0.568       22.2        8.9       0.00       0.00       0.40      0.000      46.60

 


 

 

 

Retour accueil